ADDS TAF Data INFO
IDs: Format: Raw Decoded Include METARs

Data at: 1216 UTC 18 Nov 2017

KPHF 181142Z 1812/1912 VRB03KT P6SM BKN200
  FM181700 21012KT P6SM SCT200
  FM190100 20016G24KT P6SM OVC150 WS020/21040KT
  FM190700 21023G30KT P6SM BKN080
  FM190900 22022G33KT 6SM -RA OVC050